createdAt,value
2019-01-04T00:00:42.597Z,0.47
2019-01-04T00:03:10.425Z,0.46
2019-01-04T00:05:38.414Z,0.39
2019-01-04T00:08:05.876Z,0.43
2019-01-04T00:10:33.276Z,0.24
2019-01-04T00:13:00.999Z,0.21
2019-01-04T00:15:29.029Z,0.22
2019-01-04T00:17:56.430Z,0.14
2019-01-04T00:20:23.997Z,0.35
2019-01-04T00:22:51.792Z,0.32
2019-01-04T00:25:19.487Z,0.39
2019-01-04T00:27:47.833Z,0.45
2019-01-04T00:30:16.101Z,0.42
2019-01-04T00:32:44.240Z,0.43
2019-01-04T00:35:12.042Z,0.38
2019-01-04T00:37:40.072Z,0.40
2019-01-04T00:40:08.019Z,0.44
2019-01-04T00:42:36.092Z,0.39
2019-01-04T00:45:04.380Z,0.36
2019-01-04T00:47:32.232Z,0.36
2019-01-04T00:49:59.898Z,0.29
2019-01-04T00:52:27.772Z,0.29
2019-01-04T00:55:01.497Z,0.34
2019-01-04T00:58:40.022Z,0.38
2019-01-04T01:02:22.280Z,0.35
2019-01-04T01:05:46.959Z,0.38
2019-01-04T01:08:57.186Z,0.37
2019-01-04T01:12:20.012Z,0.36
2019-01-04T01:15:41.126Z,0.37
2019-01-04T01:19:14.165Z,0.34
2019-01-04T01:22:17.249Z,0.38
2019-01-04T01:25:47.978Z,0.33
2019-01-04T01:29:09.144Z,0.30
2019-01-04T01:31:53.859Z,0.22
2019-01-04T01:35:04.391Z,0.28
2019-01-04T01:38:19.033Z,0.27
2019-01-04T01:41:38.434Z,0.17
2019-01-04T01:45:02.351Z,0.12
2019-01-04T01:47:40.328Z,0.11
2019-01-04T01:51:09.164Z,0.16
2019-01-04T01:53:44.173Z,0.04
2019-01-04T01:56:11.860Z,0.05
2019-01-04T01:58:39.247Z,0.07
2019-01-04T02:01:06.877Z,0.11
2019-01-04T02:03:34.500Z,0.14
2019-01-04T02:06:01.760Z,-0.09
2019-01-04T02:08:29.252Z,0.07
2019-01-04T02:10:56.365Z,0.13
2019-01-04T02:13:24.077Z,0.07
2019-01-04T02:15:51.331Z,0.05
2019-01-04T02:18:18.824Z,0.13
2019-01-04T02:20:46.703Z,0.14
2019-01-04T02:23:14.236Z,0.16
2019-01-04T02:25:41.661Z,0.12
2019-01-04T02:28:09.129Z,0.12
2019-01-04T02:30:36.692Z,0.09
2019-01-04T02:33:04.089Z,0.18
2019-01-04T02:35:31.367Z,0.18
2019-01-04T02:37:58.846Z,0.13
2019-01-04T02:40:26.459Z,0.13
2019-01-04T02:42:53.981Z,0.14
2019-01-04T02:45:21.701Z,0.18
2019-01-04T02:47:49.640Z,0.12
2019-01-04T02:50:17.319Z,0.07
2019-01-04T02:52:44.836Z,0.07
2019-01-04T02:55:12.781Z,-0.01
2019-01-04T02:57:40.553Z,-0.13
2019-01-04T03:00:08.230Z,-0.07
2019-01-04T03:02:35.766Z,-0.15
2019-01-04T03:05:03.606Z,-0.29
2019-01-04T03:07:31.266Z,-0.32
2019-01-04T03:09:58.506Z,-0.21
2019-01-04T03:12:26.599Z,-0.09
2019-01-04T03:14:53.748Z,-0.29
2019-01-04T03:17:21.358Z,-0.38
2019-01-04T03:19:49.513Z,-0.29
2019-01-04T03:22:16.624Z,-0.22
2019-01-04T03:24:44.403Z,-0.34
2019-01-04T03:27:12.374Z,-0.38
2019-01-04T03:29:39.747Z,-0.21
2019-01-04T03:32:07.258Z,-0.04
2019-01-04T03:34:35.122Z,-0.12
2019-01-04T03:37:02.639Z,-0.08
2019-01-04T03:39:30.123Z,-0.12
2019-01-04T03:41:58.137Z,-0.06
2019-01-04T03:44:26.104Z,-0.04
2019-01-04T03:46:53.246Z,-0.01
2019-01-04T03:49:20.592Z,-0.02
2019-01-04T03:51:48.052Z,-0.06
2019-01-04T03:54:15.731Z,-0.14
2019-01-04T03:56:43.501Z,-0.25
2019-01-04T03:59:11.477Z,-0.29
2019-01-04T04:01:39.309Z,-0.32
2019-01-04T04:04:06.822Z,-0.17
2019-01-04T04:06:34.163Z,-0.23
2019-01-04T04:09:01.632Z,-0.21
2019-01-04T04:11:30.143Z,-0.23
2019-01-04T04:13:57.602Z,-0.29
2019-01-04T04:16:25.323Z,-0.41
2019-01-04T04:18:53.639Z,-0.29
2019-01-04T04:21:20.865Z,-0.25
2019-01-04T04:23:48.753Z,-0.35
2019-01-04T04:26:16.465Z,-0.31
2019-01-04T04:28:43.657Z,-0.36
2019-01-04T04:31:11.526Z,-0.29
2019-01-04T04:33:39.486Z,-0.30
2019-01-04T04:36:06.625Z,-0.36
2019-01-04T04:38:34.226Z,-0.23
2019-01-04T04:41:02.230Z,-0.24
2019-01-04T04:43:29.740Z,-0.22
2019-01-04T04:45:57.040Z,-0.37
2019-01-04T04:48:24.832Z,-0.37
2019-01-04T04:50:52.648Z,-0.39
2019-01-04T04:53:20.458Z,-0.43
2019-01-04T04:55:48.006Z,-0.45
2019-01-04T04:58:15.769Z,-0.31
2019-01-04T05:00:44.120Z,-0.33
2019-01-04T05:03:12.086Z,-0.29
2019-01-04T05:05:39.207Z,-0.30
2019-01-04T05:08:06.474Z,-0.15
2019-01-04T05:10:34.345Z,-0.35
2019-01-04T05:13:02.008Z,-0.42
2019-01-04T05:15:29.443Z,-0.41
2019-01-04T05:17:57.498Z,-0.36
2019-01-04T05:20:24.730Z,-0.35
2019-01-04T05:22:52.147Z,-0.23
2019-01-04T05:25:19.808Z,-0.24
2019-01-04T05:27:46.964Z,-0.31
2019-01-04T05:30:14.152Z,-0.36
2019-01-04T05:32:41.994Z,-0.25
2019-01-04T05:35:09.691Z,-0.23
2019-01-04T05:37:36.843Z,-0.36
2019-01-04T05:40:05.405Z,-0.35
2019-01-04T05:42:32.864Z,-0.41
2019-01-04T05:45:00.236Z,-0.42
2019-01-04T05:47:27.786Z,-0.47
2019-01-04T05:49:55.030Z,-0.52
2019-01-04T05:52:23.026Z,-0.51
2019-01-04T05:54:51.058Z,-0.61
2019-01-04T05:57:18.543Z,-0.68
2019-01-04T05:59:46.439Z,-0.82
2019-01-04T06:02:14.022Z,-0.87
2019-01-04T06:04:41.544Z,-0.94
2019-01-04T06:07:09.239Z,-0.88
2019-01-04T06:09:37.110Z,-1.03
2019-01-04T06:12:05.159Z,-1.06
2019-01-04T06:14:32.694Z,-1.07
2019-01-04T06:16:59.900Z,-1.12
2019-01-04T06:19:27.840Z,-1.11
2019-01-04T06:21:55.861Z,-1.08
2019-01-04T06:24:23.571Z,-1.09
2019-01-04T06:26:51.356Z,-1.15
2019-01-04T06:29:18.822Z,-1.14
2019-01-04T06:31:46.728Z,-1.17
2019-01-04T06:34:14.852Z,-1.17
2019-01-04T06:36:41.981Z,-1.14
2019-01-04T06:39:09.533Z,-1.17
2019-01-04T06:41:37.356Z,-1.13
2019-01-04T06:44:05.213Z,-1.19
2019-01-04T06:46:32.594Z,-1.21
2019-01-04T06:49:00.101Z,-1.20
2019-01-04T06:51:27.983Z,-1.26
2019-01-04T06:53:56.627Z,-1.14
2019-01-04T06:56:23.999Z,-1.11
2019-01-04T06:58:51.560Z,-1.12
2019-01-04T07:01:19.182Z,-1.04
2019-01-04T07:03:47.068Z,-1.01
2019-01-04T07:06:14.570Z,-0.90
2019-01-04T07:08:42.110Z,-0.83
2019-01-04T07:11:09.494Z,-0.77
2019-01-04T07:13:36.996Z,-0.79
2019-01-04T07:16:04.239Z,-0.63
2019-01-04T07:18:31.520Z,-0.83
2019-01-04T07:20:59.372Z,-0.70
2019-01-04T07:23:26.612Z,-0.64
2019-01-04T07:25:54.107Z,-0.60
2019-01-04T07:28:21.442Z,-0.61
2019-01-04T07:30:48.900Z,-0.60
2019-01-04T07:33:16.434Z,-0.66
2019-01-04T07:35:44.466Z,-0.60
2019-01-04T07:38:12.083Z,-0.58
2019-01-04T07:40:39.180Z,-0.44
2019-01-04T07:43:06.846Z,-0.41
2019-01-04T07:45:34.181Z,-0.35
2019-01-04T07:48:02.036Z,-0.31
2019-01-04T07:50:29.621Z,-0.38
2019-01-04T07:52:57.365Z,-0.48
2019-01-04T07:55:25.037Z,-0.50
2019-01-04T07:57:52.605Z,-0.42
2019-01-04T08:00:20.113Z,-0.44
2019-01-04T08:02:57.299Z,-0.40
2019-01-04T08:05:28.676Z,-0.57
2019-01-04T08:07:56.618Z,-0.50
2019-01-04T08:10:24.178Z,-0.51
2019-01-04T08:12:51.804Z,-0.48
2019-01-04T08:15:19.181Z,-0.34
2019-01-04T08:17:46.787Z,-0.24
2019-01-04T08:20:14.023Z,-0.29
2019-01-04T08:22:42.016Z,-0.18
2019-01-04T08:25:09.813Z,-0.29
2019-01-04T08:27:37.640Z,-0.25
2019-01-04T08:30:09.828Z,-0.15
2019-01-04T08:32:40.506Z,-0.12
2019-01-04T08:35:07.801Z,-0.08
2019-01-04T08:37:35.448Z,-0.02
2019-01-04T08:40:04.278Z,0.13
2019-01-04T08:42:31.492Z,0.15
2019-01-04T08:44:58.981Z,0.15
2019-01-04T08:47:26.357Z,0.19
2019-01-04T08:49:54.362Z,0.13
2019-01-04T08:52:21.480Z,0.14
2019-01-04T08:54:49.029Z,0.21
2019-01-04T08:57:16.416Z,0.24
2019-01-04T08:59:44.306Z,0.35
2019-01-04T09:02:11.731Z,0.36
2019-01-04T09:04:39.386Z,0.40
2019-01-04T09:07:06.832Z,0.38
2019-01-04T09:09:34.568Z,0.38
2019-01-04T09:12:02.335Z,0.31
2019-01-04T09:14:29.727Z,0.41
2019-01-04T09:16:57.266Z,0.40
2019-01-04T09:19:25.129Z,0.31
2019-01-04T09:21:52.412Z,0.48
2019-01-04T09:24:20.053Z,0.60
2019-01-04T09:26:48.538Z,0.62
2019-01-04T09:29:15.781Z,0.69
2019-01-04T09:31:42.873Z,0.78
2019-01-04T09:34:10.835Z,0.88
2019-01-04T09:36:38.393Z,1.01
2019-01-04T09:39:07.433Z,1.16
2019-01-04T09:41:46.921Z,1.36
2019-01-04T09:44:14.183Z,1.42
2019-01-04T09:46:42.008Z,1.66
2019-01-04T09:49:09.314Z,1.94
2019-01-04T09:51:37.148Z,2.01
2019-01-04T09:54:04.869Z,2.03
2019-01-04T09:56:32.801Z,2.16
2019-01-04T09:59:01.108Z,2.35
2019-01-04T10:01:28.884Z,2.38
2019-01-04T10:03:56.128Z,2.58
2019-01-04T10:06:23.717Z,2.74
2019-01-04T10:08:51.580Z,2.90
2019-01-04T10:11:18.727Z,3.05
2019-01-04T10:13:46.149Z,3.20
2019-01-04T10:16:13.326Z,3.42
2019-01-04T10:18:40.637Z,3.49
2019-01-04T10:21:08.317Z,3.47
2019-01-04T10:23:36.530Z,3.62
2019-01-04T10:26:04.165Z,3.81
2019-01-04T10:28:31.557Z,4.04
2019-01-04T10:30:59.407Z,4.05
2019-01-04T10:33:27.040Z,4.20
2019-01-04T10:35:54.612Z,4.27
2019-01-04T10:38:21.937Z,4.41
2019-01-04T10:40:49.363Z,4.59
2019-01-04T10:43:17.398Z,4.62
2019-01-04T10:45:45.345Z,4.57
2019-01-04T10:48:12.891Z,4.52
2019-01-04T10:50:40.537Z,4.71
2019-01-04T10:53:07.677Z,4.66
2019-01-04T10:55:35.641Z,4.81
2019-01-04T10:58:02.909Z,4.76
2019-01-04T11:00:30.737Z,4.89
2019-01-04T11:02:58.762Z,4.90
2019-01-04T11:05:26.401Z,5.13
2019-01-04T11:07:54.072Z,5.41
2019-01-04T11:10:21.843Z,5.29
2019-01-04T11:12:49.208Z,5.43
2019-01-04T11:15:16.932Z,5.55
2019-01-04T11:17:45.211Z,5.70
2019-01-04T11:20:40.378Z,5.77
2019-01-04T11:23:43.885Z,5.88
2019-01-04T11:26:18.443Z,6.07
2019-01-04T11:29:37.372Z,6.16
2019-01-04T11:32:28.600Z,6.19
2019-01-04T11:35:26.210Z,6.04
2019-01-04T11:38:16.013Z,5.96
2019-01-04T11:41:09.221Z,5.95
2019-01-04T11:44:43.967Z,5.86
2019-01-04T11:48:03.770Z,5.79
2019-01-04T11:51:13.780Z,5.92
2019-01-04T11:53:42.430Z,6.00
2019-01-04T11:56:10.276Z,5.86
2019-01-04T11:58:37.658Z,5.88
2019-01-04T12:01:05.615Z,5.85
2019-01-04T12:03:33.122Z,5.98
2019-01-04T12:06:03.563Z,6.00
2019-01-04T12:08:31.138Z,5.93
2019-01-04T12:10:58.694Z,6.13
2019-01-04T12:13:26.576Z,6.11
2019-01-04T12:15:54.331Z,6.03
2019-01-04T12:18:22.193Z,6.16
2019-01-04T12:20:49.698Z,6.32
2019-01-04T12:23:17.408Z,6.26
2019-01-04T12:25:44.541Z,6.17
2019-01-04T12:28:12.571Z,6.19
2019-01-04T12:30:40.601Z,6.22
2019-01-04T12:33:09.126Z,6.31
2019-01-04T12:35:36.530Z,6.26
2019-01-04T12:38:04.152Z,6.14
2019-01-04T12:40:31.836Z,6.14
2019-01-04T12:42:59.679Z,6.03
2019-01-04T12:45:27.569Z,6.15
2019-01-04T12:47:54.753Z,6.15
2019-01-04T12:50:22.094Z,6.10
2019-01-04T12:52:49.617Z,6.07
2019-01-04T12:55:16.885Z,5.95
2019-01-04T12:57:44.389Z,5.94
2019-01-04T13:00:12.862Z,5.81
2019-01-04T13:02:40.917Z,5.81
2019-01-04T13:05:08.241Z,5.86
2019-01-04T13:07:35.391Z,5.73
2019-01-04T13:10:03.429Z,5.69
2019-01-04T13:12:30.924Z,5.64
2019-01-04T13:14:58.931Z,5.58
2019-01-04T13:17:26.194Z,5.64
2019-01-04T13:19:53.496Z,5.56
2019-01-04T13:22:21.621Z,5.62
2019-01-04T13:24:49.333Z,5.66
2019-01-04T13:27:16.801Z,5.53
2019-01-04T13:29:44.607Z,5.62
2019-01-04T13:32:12.788Z,5.49
2019-01-04T13:34:40.156Z,5.55
2019-01-04T13:37:07.704Z,5.56
2019-01-04T13:39:34.969Z,5.53
2019-01-04T13:42:02.509Z,5.52
2019-01-04T13:44:30.035Z,5.51
2019-01-04T13:46:57.144Z,5.44
2019-01-04T13:49:24.414Z,5.34
2019-01-04T13:51:52.642Z,5.33
2019-01-04T13:54:20.078Z,5.32
2019-01-04T13:56:47.768Z,5.36
2019-01-04T13:59:15.349Z,5.36
2019-01-04T14:01:43.477Z,5.40
2019-01-04T14:04:10.574Z,5.31
2019-01-04T14:06:38.482Z,5.19
2019-01-04T14:09:07.113Z,5.23
2019-01-04T14:11:35.062Z,5.24
2019-01-04T14:14:02.426Z,5.06
2019-01-04T14:16:30.073Z,5.11
2019-01-04T14:18:57.876Z,5.16
2019-01-04T14:21:25.159Z,5.18
2019-01-04T14:23:53.313Z,5.14
2019-01-04T14:26:20.580Z,4.99
2019-01-04T14:28:48.444Z,5.05
2019-01-04T14:31:15.577Z,5.10
2019-01-04T14:33:45.855Z,5.08
2019-01-04T14:36:13.764Z,4.96
2019-01-04T14:38:41.524Z,4.99
2019-01-04T14:41:09.490Z,4.97
2019-01-04T14:43:36.786Z,4.99
2019-01-04T14:46:04.467Z,4.93
2019-01-04T14:48:32.133Z,5.01
2019-01-04T14:51:00.016Z,5.04
2019-01-04T14:53:27.589Z,5.12
2019-01-04T14:55:55.127Z,5.04
2019-01-04T14:58:22.487Z,4.99
2019-01-04T15:00:50.277Z,5.06
2019-01-04T15:03:18.906Z,5.03
2019-01-04T15:05:50.567Z,5.04
2019-01-04T15:08:18.149Z,5.08
2019-01-04T15:10:47.172Z,5.11
2019-01-04T15:13:15.220Z,5.05
2019-01-04T15:15:42.695Z,5.14
2019-01-04T15:18:11.117Z,5.10
2019-01-04T15:20:38.754Z,5.12
2019-01-04T15:23:06.340Z,5.03
2019-01-04T15:25:33.968Z,4.97
2019-01-04T15:28:02.115Z,5.00
2019-01-04T15:30:30.884Z,4.92
2019-01-04T15:32:58.874Z,4.86
2019-01-04T15:35:27.070Z,4.90
2019-01-04T15:37:55.679Z,4.89
2019-01-04T15:40:23.746Z,4.78
2019-01-04T15:42:51.488Z,4.77
2019-01-04T15:45:20.069Z,4.79
2019-01-04T15:47:48.825Z,4.75
2019-01-04T15:50:17.420Z,4.68
2019-01-04T15:52:44.545Z,4.71
2019-01-04T15:55:13.385Z,4.61
2019-01-04T15:57:40.882Z,4.57
2019-01-04T16:00:11.536Z,4.59
2019-01-04T16:02:44.446Z,4.57
2019-01-04T16:05:12.917Z,4.53
2019-01-04T16:07:41.410Z,4.56
2019-01-04T16:10:10.049Z,4.50
2019-01-04T16:12:39.188Z,4.42
2019-01-04T16:15:08.654Z,4.43
2019-01-04T16:17:37.837Z,4.34
2019-01-04T16:20:08.329Z,4.43
2019-01-04T16:22:36.452Z,4.50
2019-01-04T16:25:05.040Z,4.41
2019-01-04T16:27:32.192Z,4.42
2019-01-04T16:29:59.378Z,4.51
2019-01-04T16:32:26.613Z,4.47
2019-01-04T16:34:54.594Z,4.44
2019-01-04T16:37:21.959Z,4.42
2019-01-04T16:39:49.771Z,4.44
2019-01-04T16:42:17.353Z,4.45
2019-01-04T16:44:44.862Z,4.33
2019-01-04T16:47:11.973Z,4.27
2019-01-04T16:52:16.231Z,4.35
2019-01-04T16:54:45.679Z,4.19
2019-01-04T16:57:21.019Z,4.14
2019-01-04T17:07:21.528Z,4.03
2019-01-04T17:18:31.112Z,4.08
2019-01-04T17:22:38.754Z,3.98
2019-01-04T17:25:08.409Z,4.09
2019-01-04T17:31:23.842Z,3.97
2019-01-04T17:33:52.727Z,4.13
2019-01-04T17:36:20.726Z,4.13
2019-01-04T17:38:48.772Z,4.19
2019-01-04T17:41:17.784Z,4.22
2019-01-04T17:43:46.188Z,4.11
2019-01-04T17:46:14.779Z,4.13
2019-01-04T17:48:42.722Z,4.15
2019-01-04T17:51:11.603Z,4.14
2019-01-04T17:53:54.607Z,4.11
2019-01-04T17:56:23.383Z,4.13
2019-01-04T17:58:51.822Z,4.18
2019-01-04T18:01:20.190Z,4.15
2019-01-04T18:03:48.531Z,4.16
2019-01-04T18:06:17.137Z,4.17
2019-01-04T18:08:45.752Z,4.12
2019-01-04T18:11:15.093Z,4.18
2019-01-04T18:14:26.882Z,4.14
2019-01-04T18:17:15.046Z,4.18
2019-01-04T18:27:59.824Z,4.27
2019-01-04T18:30:40.703Z,4.24
2019-01-04T18:33:07.934Z,4.24
2019-01-04T18:35:35.509Z,4.30
2019-01-04T18:38:03.169Z,4.34
2019-01-04T18:40:32.291Z,4.37
2019-01-04T18:43:00.524Z,4.25
2019-01-04T18:45:28.257Z,4.39
2019-01-04T18:47:56.013Z,4.39
2019-01-04T18:50:23.294Z,4.35
2019-01-04T18:52:50.723Z,4.36
2019-01-04T18:55:19.024Z,4.35
2019-01-04T18:57:46.738Z,4.38
2019-01-04T19:00:13.866Z,4.35
2019-01-04T19:02:41.456Z,4.45
2019-01-04T19:05:09.074Z,4.38
2019-01-04T19:07:36.484Z,4.43
2019-01-04T19:10:05.925Z,4.43
2019-01-04T19:12:33.336Z,4.47
2019-01-04T19:15:00.756Z,4.47
2019-01-04T19:17:28.690Z,4.51
2019-01-04T19:19:56.230Z,4.54
2019-01-04T19:22:23.797Z,4.51
2019-01-04T19:24:51.638Z,4.48
2019-01-04T19:27:18.870Z,4.45
2019-01-04T19:29:46.423Z,4.46
2019-01-04T19:32:13.692Z,4.54
2019-01-04T19:34:41.508Z,4.50
2019-01-04T19:37:11.986Z,4.53
2019-01-04T19:39:39.301Z,4.55
2019-01-04T19:42:06.943Z,4.56
2019-01-04T19:44:34.352Z,4.58
2019-01-04T19:47:02.613Z,4.51
2019-01-04T19:49:30.285Z,4.53
2019-01-04T19:51:57.410Z,4.49
2019-01-04T19:54:25.278Z,4.56
2019-01-04T19:56:52.988Z,4.53
2019-01-04T19:59:24.402Z,4.48
2019-01-04T20:01:52.005Z,4.53
2019-01-04T20:04:19.323Z,4.56
2019-01-04T20:08:10.228Z,4.58
2019-01-04T20:11:59.688Z,4.59
2019-01-04T20:15:24.794Z,4.50
2019-01-04T20:18:18.346Z,4.53
2019-01-04T20:21:17.857Z,4.60
2019-01-04T20:24:22.967Z,4.58
2019-01-04T20:27:22.078Z,4.60
2019-01-04T20:30:21.621Z,4.62
2019-01-04T20:33:06.974Z,4.61
2019-01-04T20:35:52.967Z,4.65
2019-01-04T20:38:42.511Z,4.59
2019-01-04T20:41:31.773Z,4.66
2019-01-04T20:44:19.963Z,4.65
2019-01-04T20:47:17.898Z,4.64
2019-01-04T20:49:59.407Z,4.63
2019-01-04T20:52:52.487Z,4.63
2019-01-04T20:55:42.725Z,4.64
2019-01-04T20:58:41.606Z,4.65
2019-01-04T21:01:24.333Z,4.59
2019-01-04T21:04:11.073Z,4.64
2019-01-04T21:06:57.175Z,4.66
2019-01-04T21:09:56.458Z,4.67
2019-01-04T21:12:49.264Z,4.69
2019-01-04T21:15:36.071Z,4.69
2019-01-04T21:18:38.592Z,4.68
2019-01-04T21:21:24.428Z,4.60
2019-01-04T21:24:10.471Z,4.61
2019-01-04T21:26:56.212Z,4.60
2019-01-04T21:29:46.738Z,4.66
2019-01-04T21:32:32.291Z,4.62
2019-01-04T21:35:18.247Z,4.66
2019-01-04T21:38:04.916Z,4.65
2019-01-04T21:40:52.229Z,4.59
2019-01-04T21:43:42.188Z,4.63
2019-01-04T21:46:28.314Z,4.61
2019-01-04T21:49:27.456Z,4.53
2019-01-04T21:52:13.141Z,4.58
2019-01-04T21:54:56.907Z,4.60
2019-01-04T21:57:43.057Z,4.62
2019-01-04T22:00:29.565Z,4.60
2019-01-04T22:03:15.517Z,4.61
2019-01-04T22:06:18.063Z,4.56
2019-01-04T22:09:19.551Z,4.59
2019-01-04T22:12:16.613Z,4.54
2019-01-04T22:15:01.957Z,4.57
2019-01-04T22:17:47.995Z,4.56
2019-01-04T22:20:44.205Z,4.54
2019-01-04T22:23:37.346Z,4.49
2019-01-04T22:26:23.059Z,4.51
2019-01-04T22:29:08.960Z,4.50
2019-01-04T22:31:54.850Z,4.55
2019-01-04T22:34:44.668Z,4.58
2019-01-04T22:37:30.742Z,4.59
2019-01-04T22:40:16.651Z,4.58
2019-01-04T22:43:02.045Z,4.59
2019-01-04T22:45:48.193Z,4.53
2019-01-04T22:48:28.557Z,4.60
2019-01-04T22:51:14.488Z,4.55
2019-01-04T22:54:01.297Z,4.56
2019-01-04T22:56:47.410Z,4.56
2019-01-04T22:59:33.696Z,4.57
2019-01-04T23:02:19.371Z,4.54
2019-01-04T23:05:04.350Z,4.53
2019-01-04T23:07:57.175Z,4.49
2019-01-04T23:10:44.010Z,4.60
2019-01-04T23:13:24.589Z,4.58
2019-01-04T23:16:14.721Z,4.63
2019-01-04T23:19:00.954Z,4.61
2019-01-04T23:22:52.217Z,4.70
2019-01-04T23:25:43.548Z,4.59
2019-01-04T23:28:29.314Z,4.63
2019-01-04T23:31:08.833Z,4.66
2019-01-04T23:33:58.875Z,4.74
2019-01-04T23:36:49.257Z,4.71
2019-01-04T23:39:42.754Z,4.66
2019-01-04T23:42:32.576Z,4.71
2019-01-04T23:45:25.537Z,4.72
2019-01-04T23:48:19.171Z,4.66
2019-01-04T23:51:01.927Z,4.71
2019-01-04T23:53:50.279Z,4.74
2019-01-04T23:56:41.196Z,4.81
2019-01-04T23:59:26.873Z,4.72
